Time;durP1;ratioP1;P1;durP2;ratioP2;P2;SDS_P1;SDS_P2;PMS_P1;PMS_P2;Temp;Humidity;BMP_temperature;BMP_pressure;BME280_temperature;BME280_humidity;BME280_pressure;Samples;Min_cycle;Max_cycle;Signal;HPM_P1;HPM_P2
2023/10/16 00:02:13;;;;;;;1.73;0.88;;;18.20;80.80;;;;;;4973865;28;20110;-26
2023/10/16 00:04:44;;;;;;;1.45;0.80;;;18.80;81.10;;;;;;4973229;28;20050;-27
2023/10/16 00:07:13;;;;;;;1.63;0.90;;;19.10;81.30;;;;;;4973605;28;20070;-27
2023/10/16 00:09:40;;;;;;;1.52;0.80;;;18.60;62.60;;;;;;4973609;28;20051;-27
2023/10/16 00:12:07;;;;;;;2.13;0.90;;;18.70;62.70;;;;;;4973763;28;20415;-26
2023/10/16 00:14:35;;;;;;;2.22;0.90;;;18.50;80.90;;;;;;4973119;28;20074;-27
2023/10/16 00:17:03;;;;;;;2.03;0.88;;;18.30;80.70;;;;;;4973364;28;20061;-27
2023/10/16 00:19:33;;;;;;;2.92;1.00;;;;;;;;;;4985158;28;20443;-27
2023/10/16 00:22:01;;;;;;;1.90;0.80;;;18.80;63.60;;;;;;4993071;28;20047;-27
2023/10/16 00:24:29;;;;;;;1.27;0.90;;;18.10;77.60;;;;;;4992536;28;20047;-26
2023/10/16 00:27:00;;;;;;;1.67;0.80;;;;;;;;;;4992624;28;20050;-27
2023/10/16 00:29:35;;;;;;;1.88;0.80;;;17.50;80.20;;;;;;4992688;28;20050;-27
2023/10/16 00:32:07;;;;;;;1.60;0.90;;;18.10;68.00;;;;;;4992675;28;20061;-26
2023/10/16 00:34:34;;;;;;;1.00;0.73;;;;;;;;;;4977791;28;20050;-26
2023/10/16 00:37:04;;;;;;;2.38;0.88;;;18.90;81.30;;;;;;4971868;28;20050;-25
2023/10/16 00:39:32;;;;;;;1.85;0.88;;;17.70;80.40;;;;;;4973120;28;20420;-25
2023/10/16 00:41:59;;;;;;;1.17;0.70;;;18.40;80.60;;;;;;4973294;28;20054;-24
2023/10/16 00:44:33;;;;;;;2.30;0.93;;;;;;;;;;4972761;28;20085;-25
2023/10/16 00:47:01;;;;;;;1.17;0.80;;;18.60;62.50;;;;;;4973028;28;20512;-26
2023/10/16 00:49:28;;;;;;;1.52;0.80;;;18.60;62.40;;;;;;4972613;28;20047;-28
2023/10/16 00:51:55;;;;;;;1.33;0.77;;;18.80;80.80;;;;;;4972784;28;20058;-24
2023/10/16 00:54:28;;;;;;;1.13;0.80;;;18.60;62.40;;;;;;4972998;28;20047;-28
2023/10/16 00:56:54;;;;;;;1.80;0.75;;;18.70;65.60;;;;;;4972951;28;20061;-26
2023/10/16 00:59:24;;;;;;;2.05;0.98;;;19.40;81.30;;;;;;4972819;28;20061;-25
2023/10/16 01:01:52;;;;;;;2.17;1.10;;;19.20;67.70;;;;;;4973081;28;20384;-25
2023/10/16 01:04:20;;;;;;;1.85;0.90;;;;;;;;;;4972764;28;20515;-25
2023/10/16 01:06:47;;;;;;;1.13;0.70;;;;;;;;;;4972772;28;20070;-26
2023/10/16 01:09:22;;;;;;;1.50;0.60;;;18.30;80.60;;;;;;4972633;28;20401;-25
2023/10/16 01:11:50;;;;;;;;;;;18.60;62.60;;;;;;4973404;28;20053;-27
2023/10/16 01:14:17;;;;;;;1.20;0.70;;;;;;;;;;4972508;28;19926;-28
2023/10/16 01:16:44;;;;;;;1.45;0.90;;;18.80;81.00;;;;;;4973045;28;20452;-24
2023/10/16 01:19:11;;;;;;;2.15;0.93;;;18.40;62.50;;;;;;4972522;28;20649;-27
2023/10/16 01:21:39;;;;;;;1.30;0.65;;;17.30;80.30;;;;;;4972284;28;20051;-25
2023/10/16 01:24:12;;;;;;;1.27;0.80;;;17.90;69.90;;;;;;4972625;28;20412;-24
2023/10/16 01:26:40;;;;;;;1.35;0.80;;;17.50;80.30;;;;;;4972610;28;20054;-24
2023/10/16 01:29:07;;;;;;;0.95;0.70;;;18.30;80.70;;;;;;4972859;28;20051;-24
2023/10/16 01:31:36;;;;;;;1.67;0.90;;;;;;;;;;4972691;28;20054;-25
2023/10/16 01:34:03;;;;;;;1.00;0.70;;;17.80;80.50;;;;;;4972524;28;20058;-25
2023/10/16 01:36:30;;;;;;;0.88;0.65;;;19.40;77.60;;;;;;4971758;28;20105;-25
2023/10/16 01:38:59;;;;;;;2.88;0.80;;;;;;;;;;4972805;28;20078;-27
2023/10/16 01:41:26;;;;;;;1.58;0.85;;;18.20;73.20;;;;;;4972704;28;20114;-26
2023/10/16 01:43:53;;;;;;;1.90;1.00;;;18.30;81.10;;;;;;4972295;28;20531;-26
2023/10/16 01:46:20;;;;;;;1.08;0.60;;;18.50;73.10;;;;;;4972682;28;20054;-27
2023/10/16 01:48:49;;;;;;;1.10;0.68;;;18.30;80.70;;;;;;4975744;28;20059;-27
2023/10/16 01:51:19;;;;;;;2.28;1.00;;;;;;;;;;4975869;28;20051;-26
2023/10/16 01:53:47;;;;;;;2.65;0.73;;;;;;;;;;4975554;28;20082;-26
2023/10/16 01:56:13;;;;;;;0.60;0.60;;;19.10;81.40;;;;;;4976054;28;20130;-26
2023/10/16 01:58:42;;;;;;;1.33;0.63;;;18.50;75.90;;;;;;4975809;28;20129;-27
2023/10/16 02:01:10;;;;;;;0.85;0.63;;;18.60;81.00;;;;;;4975995;28;20137;-27
2023/10/16 02:03:37;;;;;;;1.98;0.80;;;19.30;81.30;;;;;;4975547;28;20489;-27
2023/10/16 02:06:04;;;;;;;1.33;0.80;;;18.50;80.60;;;;;;4975832;28;20466;-27
2023/10/16 02:08:31;;;;;;;2.30;0.80;;;19.10;81.20;;;;;;4975382;28;20050;-26
2023/10/16 02:10:58;;;;;;;0.93;0.60;;;18.20;80.90;;;;;;4975898;28;20043;-27
2023/10/16 02:13:25;;;;;;;1.95;0.80;;;18.80;80.60;;;;;;4975739;28;20187;-26
2023/10/16 02:15:53;;;;;;;1.17;0.65;;;18.90;62.50;;;;;;4975395;28;20047;-29
2023/10/16 02:18:22;;;;;;;0.63;0.52;;;19.00;81.10;;;;;;4978040;28;20090;-27
2023/10/16 02:20:50;;;;;;;0.75;0.70;;;19.40;80.80;;;;;;4995134;28;20054;-26
2023/10/16 02:23:17;;;;;;;1.65;0.80;;;;;;;;;;4994962;28;20109;-26
2023/10/16 02:25:45;;;;;;;0.73;0.60;;;18.60;63.40;;;;;;4984416;28;20105;-27
2023/10/16 02:28:13;;;;;;;1.23;0.90;;;18.70;80.60;;;;;;4975201;28;20055;-26
2023/10/16 02:30:41;;;;;;;0.73;0.60;;;19.10;62.40;;;;;;4975351;28;20456;-26
2023/10/16 02:33:14;;;;;;;0.95;0.52;;;19.60;71.50;;;;;;4975326;28;20050;-26
2023/10/16 02:35:43;;;;;;;1.23;0.80;;;19.30;80.90;;;;;;4975305;28;20054;-26
2023/10/16 02:38:13;;;;;;;1.00;0.77;;;18.80;69.40;;;;;;4974478;28;20047;-26
2023/10/16 02:40:43;;;;;;;1.00;0.60;;;19.50;80.80;;;;;;4975349;28;20093;-27
2023/10/16 02:43:13;;;;;;;0.77;0.60;;;19.50;80.50;;;;;;4974997;28;20050;-26
2023/10/16 02:45:42;;;;;;;1.50;0.68;;;18.40;79.90;;;;;;4974914;28;20057;-27
2023/10/16 02:48:11;;;;;;;2.03;0.85;;;19.60;62.50;;;;;;4975287;28;20051;-27
2023/10/16 02:50:41;;;;;;;0.50;0.50;;;20.40;69.80;;;;;;4975044;28;20047;-26
2023/10/16 02:53:08;;;;;;;1.05;0.70;;;19.20;65.90;;;;;;4975505;28;20090;-26
2023/10/16 02:55:35;;;;;;;2.05;0.85;;;19.40;80.80;;;;;;4974978;28;20126;-26
2023/10/16 02:58:04;;;;;;;0.57;0.57;;;19.30;80.70;;;;;;4974584;28;20117;-27
2023/10/16 03:00:36;;;;;;;0.65;0.60;;;19.20;80.20;;;;;;4974059;28;20499;-26
2023/10/16 03:03:07;;;;;;;1.35;0.73;;;19.20;70.20;;;;;;4974487;28;20570;-26
2023/10/16 03:05:35;;;;;;;0.98;0.60;;;19.30;80.20;;;;;;4974724;28;20078;-27
2023/10/16 03:08:02;;;;;;;1.15;0.60;;;18.30;80.10;;;;;;4974805;28;20145;-27
2023/10/16 03:10:30;;;;;;;1.63;0.57;;;18.30;79.70;;;;;;4974486;28;20125;-26
2023/10/16 03:13:03;;;;;;;1.58;0.90;;;19.40;80.70;;;;;;4974679;28;20057;-27
2023/10/16 03:15:30;;;;;;;0.75;0.60;;;19.10;80.50;;;;;;4974181;28;20051;-27
2023/10/16 03:17:57;;;;;;;0.65;0.65;;;18.50;66.30;;;;;;4974831;28;20105;-27
2023/10/16 03:20:28;;;;;;;1.13;0.65;;;20.30;81.10;;;;;;4993550;28;20042;-26
2023/10/16 03:22:59;;;;;;;1.35;0.90;;;19.40;62.30;;;;;;4993929;28;20105;-26
2023/10/16 03:25:50;;;;;;;1.20;0.70;;;19.90;80.90;;;;;;4993409;28;20046;-27
2023/10/16 03:28:14;;;;;;;0.98;0.60;;;18.50;80.20;;;;;;4993760;28;20082;-27
2023/10/16 03:30:42;;;;;;;1.30;0.70;;;19.50;80.40;;;;;;4994000;28;20050;-27
2023/10/16 03:33:13;;;;;;;0.80;0.57;;;;;;;;;;4977022;28;20051;-26
2023/10/16 03:35:43;;;;;;;0.68;0.68;;;19.40;80.50;;;;;;4973891;28;20047;-26
2023/10/16 03:38:11;;;;;;;1.95;0.68;;;19.70;80.40;;;;;;4974042;28;20055;-26
2023/10/16 03:40:38;;;;;;;1.27;0.60;;;19.60;64.40;;;;;;4974337;28;20054;-26
2023/10/16 03:43:05;;;;;;;0.75;0.70;;;;;;;;;;4974124;28;20567;-25
2023/10/16 03:45:32;;;;;;;0.93;0.80;;;19.40;80.30;;;;;;4973557;28;20043;-27
2023/10/16 03:48:00;;;;;;;0.52;0.52;;;;;;;;;;4973590;28;20134;-25
2023/10/16 03:50:34;;;;;;;0.77;0.60;;;19.70;80.80;;;;;;4973810;28;20162;-27
2023/10/16 03:53:02;;;;;;;1.75;0.70;;;18.70;79.90;;;;;;4973870;28;20050;-27
2023/10/16 03:55:32;;;;;;;1.67;1.02;;;18.80;80.00;;;;;;4973619;28;20046;-27
2023/10/16 03:57:58;;;;;;;1.00;0.60;;;19.20;68.40;;;;;;4974068;28;20051;-26
2023/10/16 04:00:27;;;;;;;0.40;0.40;;;;;;;;;;4973833;28;20051;-26
2023/10/16 04:02:59;;;;;;;1.25;0.80;;;18.50;79.60;;;;;;4973685;28;20576;-27
2023/10/16 04:05:32;;;;;;;1.48;1.17;;;;;;;;;;4973091;28;20039;-26
2023/10/16 04:07:59;;;;;;;1.00;0.57;;;;;;;;;;4973954;28;20388;-27
2023/10/16 04:10:29;;;;;;;0.50;0.50;;;19.40;62.30;;;;;;4973448;28;20218;-26
2023/10/16 04:12:57;;;;;;;1.27;0.60;;;18.40;79.70;;;;;;4973960;28;20050;-26
2023/10/16 04:15:48;;;;;;;0.82;0.57;;;19.70;80.80;;;;;;4973222;28;20082;-26
2023/10/16 04:18:27;;;;;;;0.50;0.45;;;20.60;81.00;;;;;;4974560;28;20061;-27
2023/10/16 04:20:56;;;;;;;1.20;0.80;;;;;;;;;;4992784;28;20133;-26
2023/10/16 04:23:35;;;;;;;0.70;0.52;;;;;;;;;;4980362;28;20518;-26
2023/10/16 04:31:44;;;;;;;0.68;0.50;;;19.00;80.50;;;;;;4973082;28;20058;-27
2023/10/16 04:34:24;;;;;;;1.30;0.60;;;19.50;80.80;;;;;;4973189;28;20042;-27
2023/10/16 04:36:54;;;;;;;0.50;0.50;;;19.30;62.30;;;;;;4972703;28;20050;-26
2023/10/16 04:45:00;;;;;;;0.95;0.60;;;18.60;62.20;;;;;;4973103;28;20050;-27
2023/10/16 04:47:28;;;;;;;1.00;0.60;;;19.20;80.20;;;;;;4973108;28;20055;-27
2023/10/16 04:50:06;;;;;;;1.35;0.77;;;;;;;;;;4972972;28;20078;-26
2023/10/16 04:53:06;;;;;;;0.63;0.50;;;;;;;;;;4973404;28;20129;-26
2023/10/16 05:01:17;;;;;;;1.27;0.60;;;19.00;80.20;;;;;;4973202;28;20419;-27
2023/10/16 05:03:44;;;;;;;0.50;0.50;;;;;;;;;;4973008;28;20059;-25
2023/10/16 05:06:14;;;;;;;0.63;0.55;;;20.20;66.50;;;;;;4972743;28;20058;-27
2023/10/16 05:08:59;;;;;;;0.68;0.50;;;19.50;80.90;;;;;;4973115;28;20131;-27
2023/10/16 05:11:27;;;;;;;0.75;0.60;;;;;;;;;;4972806;28;20058;-25
2023/10/16 05:14:15;;;;;;;0.57;0.55;;;19.30;65.20;;;;;;4972301;28;20054;-26
2023/10/16 05:16:48;;;;;;;0.57;0.47;;;20.30;62.90;;;;;;4972934;28;20179;-26
2023/10/16 05:19:29;;;;;;;0.55;0.50;;;19.30;80.50;;;;;;4982782;28;20077;-27
2023/10/16 05:22:05;;;;;;;0.90;0.68;;;19.50;80.90;;;;;;4992323;28;20056;-27
2023/10/16 06:14:11;;;;;;;0.40;0.40;;;;;;;;;;4975724;28;20051;-25
2023/10/16 06:16:39;;;;;;;0.65;0.60;;;20.60;81.20;;;;;;4975903;28;20110;-25
2023/10/16 06:19:14;;;;;;;0.80;0.63;;;;;;;;;;4979837;28;20047;-26
2023/10/16 06:21:45;;;;;;;1.10;0.80;;;18.80;64.50;;;;;;4975413;28;20139;-25
2023/10/16 06:24:25;;;;;;;1.08;0.70;;;19.70;68.60;;;;;;4967243;28;20122;-25
2023/10/16 06:26:52;;;;;;;0.85;0.60;;;;;;;;;;4975235;28;20047;-28
2023/10/16 06:29:19;;;;;;;1.05;0.70;;;19.80;68.70;;;;;;4975626;28;20107;-25
2023/10/16 06:31:53;;;;;;;0.85;0.60;;;;;;;;;;4975135;28;20074;-27
2023/10/16 06:34:20;;;;;;;1.90;0.50;;;19.30;80.70;;;;;;4974128;28;20059;-24
2023/10/16 06:36:48;;;;;;;0.55;0.55;;;19.60;68.60;;;;;;4974001;28;20039;-25
2023/10/16 06:39:27;;;;;;;0.40;0.40;;;;;;;;;;4975152;28;20047;-25
2023/10/16 06:41:55;;;;;;;0.98;0.70;;;;;;;;;;4988733;28;20054;-28
2023/10/16 06:44:28;;;;;;;0.82;0.60;;;19.40;80.20;;;;;;4994305;28;20495;-27
2023/10/16 06:46:58;;;;;;;0.50;0.50;;;;;;;;;;4992164;28;20053;-26
2023/10/16 06:49:26;;;;;;;0.95;0.70;;;;;;;;;;4975108;28;20141;-26
2023/10/16 06:51:56;;;;;;;0.75;0.65;;;19.70;69.40;;;;;;4974746;28;20061;-28
2023/10/16 06:54:25;;;;;;;0.85;0.50;;;19.90;62.30;;;;;;4974451;28;20138;-27
2023/10/16 06:56:52;;;;;;;1.75;0.70;;;20.20;80.20;;;;;;4975222;28;20427;-28
2023/10/16 06:59:19;;;;;;;0.73;0.63;;;20.10;80.40;;;;;;4975166;28;20082;-28
2023/10/16 07:01:46;;;;;;;0.57;0.55;;;21.30;72.90;;;;;;4975091;28;20054;-28
2023/10/16 07:04:15;;;;;;;0.57;0.50;;;20.40;63.80;;;;;;4974778;28;20114;-28
2023/10/16 07:06:44;;;;;;;1.23;0.60;;;;;;;;;;4973942;28;20046;-28
2023/10/16 07:09:12;;;;;;;1.08;0.70;;;20.20;62.00;;;;;;4974170;28;20050;-26
2023/10/16 07:11:42;;;;;;;0.82;0.60;;;;;;;;;;4974084;28;20421;-26
2023/10/16 07:14:12;;;;;;;0.57;0.50;;;19.80;79.20;;;;;;4974293;28;20471;-28
2023/10/16 07:16:40;;;;;;;0.70;0.60;;;20.00;79.60;;;;;;4974525;28;20043;-28
2023/10/16 07:19:08;;;;;;;0.60;0.60;;;;;;;;;;4975974;28;20055;-26
2023/10/16 07:21:35;;;;;;;0.93;0.60;;;20.80;79.80;;;;;;4969845;28;20047;-28
2023/10/16 07:24:03;;;;;;;0.98;0.50;;;;;;;;;;4974256;28;20074;-27
2023/10/16 07:26:34;;;;;;;1.05;0.60;;;19.50;71.60;;;;;;4973429;28;20047;-28
2023/10/16 07:29:02;;;;;;;0.63;0.63;;;20.90;79.50;;;;;;4973717;28;20142;-28
2023/10/16 07:31:28;;;;;;;0.77;0.60;;;20.40;78.80;;;;;;4971982;28;20051;-28
2023/10/16 07:33:59;;;;;;;1.33;0.63;;;20.70;79.30;;;;;;4974292;28;20055;-28
2023/10/16 07:36:27;;;;;;;1.23;0.70;;;20.90;63.10;;;;;;4973572;28;20049;-28
2023/10/16 07:38:54;;;;;;;0.68;0.60;;;20.90;79.10;;;;;;4974523;28;20055;-28
2023/10/16 07:41:23;;;;;;;3.55;0.88;;;20.80;77.20;;;;;;4971326;28;20058;-28
2023/10/16 07:43:56;;;;;;;3.47;0.90;;;20.80;61.20;;;;;;4971219;28;20046;-26
2023/10/16 07:46:29;;;;;;;4.97;1.13;;;21.40;67.20;;;;;;4972074;28;20154;-28
2023/10/16 07:48:56;;;;;;;1.30;0.80;;;21.80;69.30;;;;;;4971810;28;20049;-28
2023/10/16 07:51:25;;;;;;;3.13;1.23;;;21.80;73.70;;;;;;4972419;28;20106;-28
2023/10/16 07:53:52;;;;;;;3.42;0.93;;;;;;;;;;4971914;28;20051;-27
2023/10/16 07:56:28;;;;;;;1.10;0.75;;;21.20;69.80;;;;;;4973448;28;20046;-28
2023/10/16 07:59:06;;;;;;;1.73;0.80;;;21.10;68.50;;;;;;4973892;28;20133;-28
2023/10/16 08:01:41;;;;;;;4.03;0.95;;;20.90;61.30;;;;;;4974142;28;20142;-26
2023/10/16 08:04:19;;;;;;;1.33;0.90;;;;;;;;;;4974229;28;20087;-23
2023/10/16 08:06:46;;;;;;;1.63;0.90;;;21.40;79.20;;;;;;4993108;28;20075;-28
2023/10/16 08:11:58;;;;;;;1.15;0.70;;;20.70;78.40;;;;;;4973840;28;20489;-28
2023/10/16 08:14:26;;;;;;;2.05;0.95;;;21.40;79.20;;;;;;4973657;28;20054;-28
2023/10/16 08:16:58;;;;;;;3.25;1.00;;;20.90;78.50;;;;;;4973778;28;20563;-28
2023/10/16 08:19:25;;;;;;;2.15;0.88;;;20.80;61.50;;;;;;4984669;28;20496;-28
2023/10/16 08:21:55;;;;;;;2.83;0.73;;;21.10;78.90;;;;;;4992811;28;20134;-28
2023/10/16 08:24:24;;;;;;;2.78;1.13;;;21.00;63.30;;;;;;4992878;28;20078;-28
2023/10/16 08:26:51;;;;;;;2.35;0.90;;;20.40;78.20;;;;;;4979424;28;20507;-25
2023/10/16 08:29:20;;;;;;;0.95;0.70;;;20.90;73.70;;;;;;4973481;28;20058;-25
2023/10/16 08:31:55;;;;;;;1.08;0.73;;;20.20;78.10;;;;;;4973213;28;20066;-25
2023/10/16 08:34:22;;;;;;;5.30;0.98;;;;;;;;;;4973276;28;20046;-27
2023/10/16 08:36:51;;;;;;;1.83;0.90;;;20.70;78.40;;;;;;4972918;28;20615;-25
2023/10/16 08:39:19;;;;;;;1.45;1.05;;;21.10;78.50;;;;;;4973320;28;20527;-25
2023/10/16 08:41:51;;;;;;;2.10;0.88;;;21.20;78.80;;;;;;4973086;28;20082;-25
2023/10/16 08:44:18;;;;;;;1.88;0.93;;;;;;;;;;4972630;28;20109;-28
2023/10/16 08:46:52;;;;;;;1.75;0.80;;;20.90;78.40;;;;;;4973178;28;20047;-25
2023/10/16 08:49:22;;;;;;;1.50;0.80;;;20.70;78.60;;;;;;4973315;28;20059;-25
2023/10/16 08:51:50;;;;;;;3.33;0.80;;;21.10;78.60;;;;;;4973306;28;20142;-28
2023/10/16 08:57:01;;;;;;;1.33;0.80;;;21.10;78.30;;;;;;4972655;28;20047;-28
2023/10/16 08:59:28;;;;;;;2.13;0.80;;;20.90;78.60;;;;;;4973057;28;20051;-28
2023/10/16 09:01:55;;;;;;;1.67;0.80;;;21.70;64.90;;;;;;4972923;28;20046;-28
2023/10/16 09:04:24;;;;;;;2.10;0.90;;;20.90;61.20;;;;;;4953548;28;20161;-28
2023/10/16 09:06:51;;;;;;;0.77;0.60;;;20.00;77.90;;;;;;4953718;28;20048;-25
2023/10/16 09:09:20;;;;;;;1.88;0.88;;;;;;;;;;4953595;28;20087;-25
2023/10/16 09:11:49;;;;;;;1.90;0.70;;;21.00;61.40;;;;;;4953773;28;20421;-27
2023/10/16 09:14:17;;;;;;;1.52;0.70;;;20.80;69.10;;;;;;4953219;28;20055;-26
2023/10/16 09:16:47;;;;;;;2.28;0.70;;;20.90;67.20;;;;;;4961037;28;20047;-25
2023/10/16 09:19:15;;;;;;;1.15;0.68;;;21.10;78.60;;;;;;4982426;28;20046;-25
2023/10/16 09:21:44;;;;;;;2.05;0.88;;;20.70;71.60;;;;;;4992318;28;20050;-25
2023/10/16 09:24:12;;;;;;;0.88;0.68;;;20.80;78.90;;;;;;4992451;28;20066;-25
2023/10/16 09:26:44;;;;;;;1.55;0.82;;;;;;;;;;4991778;28;20511;-28
2023/10/16 09:29:14;;;;;;;1.13;0.73;;;;;;;;;;4992158;28;20598;-28
2023/10/16 09:31:44;;;;;;;1.08;0.60;;;20.90;79.20;;;;;;4992305;28;20078;-25
2023/10/16 09:34:13;;;;;;;1.63;0.70;;;20.80;79.10;;;;;;4976507;28;20051;-25
2023/10/16 09:36:41;;;;;;;2.55;0.82;;;;;;;;;;4971710;28;20054;-27
2023/10/16 09:39:17;;;;;;;1.95;0.90;;;20.80;61.60;;;;;;4972352;28;20055;-25
2023/10/16 09:41:46;;;;;;;1.77;0.98;;;;;;;;;;4969535;28;20089;-25
2023/10/16 09:44:22;;;;;;;2.45;0.95;;;20.80;61.40;;;;;;4970453;28;20043;-25
2023/10/16 09:46:56;;;;;;;2.53;0.85;;;20.70;78.60;;;;;;4970240;28;20541;-25
2023/10/16 09:49:23;;;;;;;2.67;1.15;;;20.40;78.70;;;;;;4972074;28;20129;-25
2023/10/16 09:51:50;;;;;;;1.55;1.00;;;;;;;;;;4972222;28;20053;-25
2023/10/16 09:54:23;;;;;;;2.40;0.93;;;19.70;77.80;;;;;;4972311;28;20047;-25
2023/10/16 09:56:52;;;;;;;2.13;0.98;;;20.50;78.30;;;;;;4970174;28;20047;-25
2023/10/16 09:59:26;;;;;;;3.72;1.40;;;20.40;78.00;;;;;;4971771;28;20043;-25
2023/10/16 10:01:55;;;;;;;1.40;0.68;;;20.60;65.30;;;;;;4970162;28;20389;-25
2023/10/16 10:04:24;;;;;;;2.88;0.90;;;20.10;77.70;;;;;;4971912;28;20086;-25
2023/10/16 10:06:54;;;;;;;1.30;0.80;;;20.50;60.90;;;;;;4969839;28;20130;-27
2023/10/16 10:09:31;;;;;;;1.35;0.90;;;20.50;60.90;;;;;;4957225;28;20063;-28
2023/10/16 10:12:09;;;;;;;1.35;0.80;;;20.70;78.70;;;;;;4973884;28;20089;-24
2023/10/16 10:14:40;;;;;;;2.55;0.90;;;20.00;78.50;;;;;;4973177;28;20124;-25
2023/10/16 10:17:10;;;;;;;2.40;1.00;;;21.20;78.80;;;;;;4975495;28;20051;-25
2023/10/16 10:19:39;;;;;;;1.30;0.80;;;20.30;78.40;;;;;;4974094;28;20057;-25
2023/10/16 10:22:16;;;;;;;2.28;1.10;;;20.40;78.70;;;;;;4975132;28;20130;-25
2023/10/16 10:24:48;;;;;;;1.40;0.90;;;19.80;60.80;;;;;;4973302;28;20581;-26
2023/10/16 10:27:16;;;;;;;1.55;0.93;;;20.00;78.30;;;;;;4975178;28;20047;-25
2023/10/16 10:29:44;;;;;;;1.23;0.90;;;;;;;;;;4975084;28;20506;-28
2023/10/16 10:32:12;;;;;;;2.33;0.90;;;20.10;78.30;;;;;;4975196;28;20094;-25
2023/10/16 10:34:39;;;;;;;1.58;0.82;;;19.30;78.20;;;;;;4974591;28;20062;-25
2023/10/16 10:37:39;;;;;;;2.20;0.95;;;20.30;61.10;;;;;;4972081;28;20140;-25
2023/10/16 10:40:15;;;;;;;1.83;0.90;;;20.20;64.30;;;;;;4974071;28;20059;-26
2023/10/16 10:42:42;;;;;;;2.05;1.10;;;;;;;;;;4974594;28;20047;-27
2023/10/16 10:45:18;;;;;;;1.52;1.00;;;20.50;78.80;;;;;;4974513;28;20578;-25
2023/10/16 10:47:45;;;;;;;1.20;0.70;;;20.10;78.80;;;;;;4974560;28;20046;-25
2023/10/16 10:50:15;;;;;;;1.95;0.80;;;19.90;78.80;;;;;;4974937;28;20109;-25
2023/10/16 10:52:43;;;;;;;1.38;0.70;;;21.00;79.10;;;;;;4974934;28;20049;-25
2023/10/16 10:55:22;;;;;;;1.20;0.73;;;20.20;61.20;;;;;;4974443;28;20093;-28
2023/10/16 10:57:55;;;;;;;2.10;0.98;;;20.20;61.30;;;;;;4974666;28;20046;-25
2023/10/16 11:00:43;;;;;;;1.52;0.80;;;;;;;;;;4990793;28;20490;-28
2023/10/16 11:03:22;;;;;;;3.08;1.00;;;19.90;78.80;;;;;;4956042;28;20057;-25
2023/10/16 11:05:50;;;;;;;0.93;0.70;;;20.20;73.10;;;;;;4955492;28;20051;-25
2023/10/16 11:08:25;;;;;;;2.40;0.80;;;;;;;;;;4961932;28;20050;-25
2023/10/16 11:10:56;;;;;;;3.72;1.05;;;20.50;78.80;;;;;;4975028;28;20085;-25
2023/10/16 11:13:26;;;;;;;2.22;1.00;;;;;;;;;;4974205;28;20070;-28
2023/10/16 11:15:54;;;;;;;1.27;0.80;;;20.40;78.50;;;;;;4974285;28;20054;-25
2023/10/16 11:18:21;;;;;;;3.08;0.80;;;20.30;61.60;;;;;;4976837;28;20055;-27
2023/10/16 11:20:49;;;;;;;3.67;0.80;;;;;;;;;;4993253;28;20050;-24
2023/10/16 11:23:17;;;;;;;2.63;0.60;;;20.30;79.00;;;;;;4994020;28;20415;-25
2023/10/16 11:25:45;;;;;;;1.58;0.80;;;;;;;;;;4993453;28;20443;-27
2023/10/16 11:28:17;;;;;;;0.90;0.75;;;20.40;61.70;;;;;;4988231;28;20050;-27
2023/10/16 11:30:45;;;;;;;2.13;0.90;;;20.40;61.70;;;;;;4973171;28;20059;-26
2023/10/16 11:33:12;;;;;;;3.28;1.00;;;;;;;;;;4974314;28;20051;-27
2023/10/16 11:35:44;;;;;;;1.13;0.80;;;20.50;61.70;;;;;;4974106;28;20065;-29
2023/10/16 11:38:19;;;;;;;1.08;0.70;;;20.00;61.40;;;;;;4973719;28;20057;-25
2023/10/16 11:40:47;;;;;;;1.00;0.70;;;20.30;77.50;;;;;;4973082;28;20090;-25
2023/10/16 11:43:19;;;;;;;1.35;0.75;;;19.90;74.00;;;;;;4974093;28;20057;-25
2023/10/16 11:45:53;;;;;;;1.05;0.70;;;20.00;61.40;;;;;;4974018;28;20139;-26
2023/10/16 11:48:27;;;;;;;2.33;0.87;;;;;;;;;;4972659;28;20053;-26
2023/10/16 11:51:02;;;;;;;0.55;0.55;;;20.30;66.80;;;;;;4973572;28;20547;-26
2023/10/16 11:53:31;;;;;;;1.48;1.35;;;20.30;79.00;;;;;;4971702;28;20043;-26
2023/10/16 11:55:59;;;;;;;0.77;0.75;;;;;;;;;;4973341;28;20421;-25
2023/10/16 11:58:31;;;;;;;1.17;0.88;;;20.20;78.60;;;;;;4973245;28;20078;-28
2023/10/16 12:01:08;;;;;;;1.00;0.75;;;20.20;64.50;;;;;;4973496;28;20420;-28
2023/10/16 12:03:37;;;;;;;1.80;1.00;;;20.00;76.80;;;;;;4972089;28;20046;-28
2023/10/16 12:06:08;;;;;;;1.27;0.90;;;20.30;79.50;;;;;;4970660;28;20057;-28
2023/10/16 12:08:35;;;;;;;1.73;0.80;;;20.20;77.50;;;;;;4973110;28;20082;-26
2023/10/16 12:11:03;;;;;;;2.47;0.80;;;;;;;;;;4973593;28;20082;-28
2023/10/16 12:13:31;;;;;;;1.45;0.80;;;20.40;80.10;;;;;;4973398;28;20057;-25
2023/10/16 12:15:59;;;;;;;3.05;0.80;;;;;;;;;;4973748;28;20078;-25
2023/10/16 12:18:28;;;;;;;1.00;0.70;;;20.20;62.30;;;;;;4973945;28;20097;-25
2023/10/16 12:20:58;;;;;;;2.00;0.80;;;20.00;68.70;;;;;;4961249;28;20046;-26
2023/10/16 12:23:26;;;;;;;0.80;0.77;;;;;;;;;;4972189;28;20069;-26
2023/10/16 12:25:53;;;;;;;1.58;0.98;;;21.00;70.60;;;;;;4972440;28;20055;-26
2023/10/16 12:28:21;;;;;;;2.15;0.90;;;;;;;;;;4972379;28;20081;-26
2023/10/16 12:30:49;;;;;;;1.98;1.10;;;19.10;77.20;;;;;;4972490;28;20054;-27
2023/10/16 12:33:16;;;;;;;1.40;0.90;;;;;;;;;;4971968;28;20074;-26
2023/10/16 12:35:42;;;;;;;1.23;0.80;;;19.50;79.80;;;;;;4972533;28;20055;-27
2023/10/16 12:38:10;;;;;;;1.00;0.75;;;20.00;68.40;;;;;;4971566;28;20106;-26
2023/10/16 12:40:38;;;;;;;2.20;1.00;;;20.20;80.20;;;;;;4972692;28;20061;-27
2023/10/16 12:43:05;;;;;;;2.88;0.90;;;19.60;80.40;;;;;;4972483;28;20054;-28
2023/10/16 12:45:33;;;;;;;4.55;1.02;;;20.20;80.30;;;;;;4972143;28;20080;-28
2023/10/16 12:48:01;;;;;;;3.20;0.95;;;19.60;68.00;;;;;;4972454;28;20047;-27
2023/10/16 12:50:29;;;;;;;1.92;0.90;;;19.90;70.50;;;;;;4972498;28;20089;-28
2023/10/16 12:52:57;;;;;;;1.45;0.90;;;19.90;62.90;;;;;;4972012;28;20086;-26
2023/10/16 12:55:24;;;;;;;1.52;0.88;;;;;;;;;;4971954;28;20101;-26
2023/10/16 12:57:50;;;;;;;1.25;0.60;;;21.00;81.00;;;;;;4968000;28;20082;-28
2023/10/16 13:00:19;;;;;;;2.58;1.00;;;21.00;81.10;;;;;;4971341;28;20113;-28
2023/10/16 13:02:46;;;;;;;2.72;0.70;;;;;;;;;;4973099;28;20133;-27
2023/10/16 13:05:15;;;;;;;2.22;0.82;;;19.40;80.60;;;;;;4971029;28;20504;-28
2023/10/16 13:07:42;;;;;;;1.13;0.70;;;18.80;72.90;;;;;;4972655;28;20058;-28
2023/10/16 13:10:14;;;;;;;2.55;1.00;;;20.00;80.70;;;;;;4973319;28;20050;-26
2023/10/16 13:12:41;;;;;;;1.92;0.93;;;19.70;77.20;;;;;;4972471;28;20073;-26
2023/10/16 13:15:09;;;;;;;2.80;1.00;;;19.80;63.20;;;;;;4972737;28;20047;-26
2023/10/16 13:17:37;;;;;;;2.00;0.82;;;19.70;63.20;;;;;;4972867;28;20047;-26
2023/10/16 13:20:05;;;;;;;1.77;0.80;;;20.10;81.30;;;;;;4960020;28;20083;-27
2023/10/16 13:22:34;;;;;;;2.08;0.98;;;19.40;80.30;;;;;;4972548;28;20051;-26
2023/10/16 13:25:01;;;;;;;0.98;0.70;;;19.80;65.30;;;;;;4975260;28;20058;-26
2023/10/16 13:27:27;;;;;;;1.25;0.90;;;19.50;80.80;;;;;;4972719;28;20133;-26
2023/10/16 13:29:54;;;;;;;2.17;0.88;;;19.50;80.60;;;;;;4972633;28;20102;-27
2023/10/16 13:32:21;;;;;;;1.33;0.80;;;19.40;66.00;;;;;;4972947;28;20055;-26
2023/10/16 13:34:50;;;;;;;1.98;0.90;;;;;;;;;;4972322;28;20590;-26
2023/10/16 13:37:18;;;;;;;1.48;0.82;;;19.80;63.10;;;;;;4972144;28;20050;-26
2023/10/16 13:39:46;;;;;;;1.45;0.93;;;19.70;63.10;;;;;;4972739;28;20522;-26
2023/10/16 13:42:15;;;;;;;1.60;1.00;;;;;;;;;;4972585;28;20051;-26
2023/10/16 13:44:42;;;;;;;1.73;1.15;;;;;;;;;;4975446;28;20088;-27
2023/10/16 13:47:10;;;;;;;2.58;0.93;;;;;;;;;;4976088;28;20050;-27
2023/10/16 13:49:37;;;;;;;2.15;1.13;;;20.00;81.20;;;;;;4976420;28;20061;-24
2023/10/16 13:52:07;;;;;;;1.27;0.90;;;19.40;80.70;;;;;;4975589;28;20508;-24
2023/10/16 13:54:34;;;;;;;1.30;1.00;;;19.80;63.00;;;;;;4976280;28;20487;-25
2023/10/16 13:57:03;;;;;;;3.10;1.20;;;19.80;63.00;;;;;;4976539;28;20082;-27
2023/10/16 13:59:30;;;;;;;2.28;1.00;;;;;;;;;;4976271;28;20082;-27
2023/10/16 14:01:58;;;;;;;2.72;1.40;;;19.70;80.40;;;;;;4975696;28;20043;-26
2023/10/16 14:04:32;;;;;;;1.98;1.40;;;21.00;81.00;;;;;;4975954;28;20051;-26
2023/10/16 14:06:59;;;;;;;2.40;1.42;;;19.40;80.60;;;;;;4975758;28;20062;-26
2023/10/16 14:09:28;;;;;;;2.08;1.33;;;19.90;70.30;;;;;;4975993;28;20082;-26
2023/10/16 14:11:58;;;;;;;2.72;1.45;;;19.70;80.20;;;;;;4976094;28;20057;-26
2023/10/16 14:14:27;;;;;;;2.33;1.90;;;20.60;80.70;;;;;;4976019;28;20069;-26
2023/10/16 14:17:02;;;;;;;2.78;1.45;;;19.90;62.70;;;;;;4975558;28;20089;-25
2023/10/16 14:19:29;;;;;;;1.95;1.40;;;19.90;62.70;;;;;;4975248;28;20078;-25
2023/10/16 14:21:57;;;;;;;2.80;1.60;;;;;;;;;;4956500;28;20047;-26
2023/10/16 14:24:25;;;;;;;1.45;1.35;;;18.90;80.00;;;;;;4956673;28;20047;-26
2023/10/16 14:26:54;;;;;;;2.08;1.50;;;19.90;80.20;;;;;;4955887;28;20051;-26
2023/10/16 14:29:21;;;;;;;3.05;1.70;;;;;;;;;;4956359;28;20058;-26
2023/10/16 14:31:50;;;;;;;2.63;1.58;;;19.20;80.00;;;;;;4956363;28;20083;-26
2023/10/16 14:34:19;;;;;;;2.10;1.70;;;20.00;80.00;;;;;;4956459;28;20051;-25
2023/10/16 14:36:46;;;;;;;2.33;1.70;;;20.80;81.00;;;;;;4965971;28;20050;-24